createdAt,value
2023-03-13T00:01:19.123Z,2.05
2023-03-13T00:03:47.557Z,2.35
2023-03-13T00:06:16.310Z,2.33
2023-03-13T00:08:45.073Z,1.98
2023-03-13T00:11:15.279Z,2.33
2023-03-13T00:13:45.532Z,2.55
2023-03-13T00:16:14.966Z,2.80
2023-03-13T00:18:47.420Z,1.75
2023-03-13T00:21:18.155Z,2.25
2023-03-13T00:23:48.702Z,1.95
2023-03-13T00:26:18.462Z,2.05
2023-03-13T00:28:48.626Z,2.05
2023-03-13T00:31:18.318Z,2.55
2023-03-13T00:33:48.004Z,2.85
2023-03-13T00:36:17.311Z,2.22
2023-03-13T00:38:46.459Z,2.08
2023-03-13T00:41:16.004Z,2.15
2023-03-13T00:43:45.032Z,2.80
2023-03-13T00:46:18.331Z,2.80
2023-03-13T00:48:46.809Z,2.03
2023-03-13T00:51:16.009Z,2.42
2023-03-13T00:53:53.628Z,2.13
2023-03-13T00:56:22.546Z,1.90
2023-03-13T00:58:51.802Z,2.15
2023-03-13T01:01:22.726Z,2.17
2023-03-13T01:03:52.586Z,2.03
2023-03-13T01:06:24.376Z,2.35
2023-03-13T01:08:54.658Z,2.22
2023-03-13T01:11:24.533Z,2.30
2023-03-13T01:13:55.650Z,2.17
2023-03-13T01:16:26.198Z,1.65
2023-03-13T01:18:55.863Z,1.95
2023-03-13T01:21:24.824Z,2.40
2023-03-13T01:23:54.020Z,2.30
2023-03-13T01:26:23.183Z,2.05
2023-03-13T01:28:52.310Z,2.58
2023-03-13T01:31:23.588Z,1.45
2023-03-13T01:33:57.331Z,1.60
2023-03-13T01:36:26.050Z,2.03
2023-03-13T01:38:55.332Z,1.85
2023-03-13T01:41:24.541Z,2.08
2023-03-13T01:43:53.442Z,2.58
2023-03-13T01:46:22.214Z,2.63
2023-03-13T01:48:56.608Z,2.40
2023-03-13T01:51:27.692Z,1.67
2023-03-13T01:53:59.868Z,2.10
2023-03-13T01:56:31.221Z,2.00
2023-03-13T01:58:59.980Z,2.22
2023-03-13T02:01:28.624Z,1.73
2023-03-13T02:03:59.052Z,1.80
2023-03-13T02:06:30.083Z,2.10
2023-03-13T02:09:00.482Z,1.95
2023-03-13T02:11:33.690Z,2.00
2023-03-13T02:14:02.343Z,1.98
2023-03-13T02:16:30.939Z,2.00
2023-03-13T02:19:00.814Z,1.83
2023-03-13T02:21:38.108Z,1.85
2023-03-13T02:24:10.739Z,2.00
2023-03-13T02:26:40.896Z,1.60
2023-03-13T02:29:10.019Z,2.17
2023-03-13T02:31:38.488Z,2.60
2023-03-13T02:34:08.471Z,1.88
2023-03-13T02:36:36.882Z,1.73
2023-03-13T02:39:06.855Z,2.50
2023-03-13T02:41:36.407Z,1.92
2023-03-13T02:44:07.001Z,2.10
2023-03-13T02:46:46.234Z,1.83
2023-03-13T02:49:27.778Z,2.65
2023-03-13T02:51:56.712Z,1.95
2023-03-13T02:54:26.390Z,1.90
2023-03-13T02:56:57.670Z,1.52
2023-03-13T02:59:27.965Z,2.08
2023-03-13T03:01:56.888Z,2.00
2023-03-13T03:04:26.095Z,2.35
2023-03-13T03:06:54.948Z,1.50
2023-03-13T03:09:23.633Z,1.83
2023-03-13T03:11:52.399Z,1.80
2023-03-13T03:14:20.877Z,1.90
2023-03-13T03:16:50.683Z,1.80
2023-03-13T03:19:19.089Z,2.17
2023-03-13T03:21:49.523Z,1.70
2023-03-13T03:24:18.119Z,1.77
2023-03-13T03:26:47.085Z,1.90
2023-03-13T03:29:15.990Z,1.90
2023-03-13T03:31:44.500Z,1.90
2023-03-13T03:34:15.925Z,2.47
2023-03-13T03:36:44.410Z,1.95
2023-03-13T03:39:13.026Z,2.38
2023-03-13T03:41:43.567Z,1.77
2023-03-13T03:44:11.924Z,2.47
2023-03-13T03:46:40.309Z,2.03
2023-03-13T03:49:08.797Z,1.83
2023-03-13T03:51:38.508Z,2.03
2023-03-13T03:54:07.203Z,2.00
2023-03-13T03:56:35.679Z,2.20
2023-03-13T03:59:04.099Z,1.77
2023-03-13T04:01:32.419Z,1.70
2023-03-13T04:04:00.744Z,1.88
2023-03-13T04:06:29.089Z,1.80
2023-03-13T04:08:58.802Z,2.20
2023-03-13T04:11:27.127Z,2.10
2023-03-13T04:13:55.451Z,2.15
2023-03-13T04:16:24.116Z,1.88
2023-03-13T04:18:52.473Z,2.30
2023-03-13T04:21:20.890Z,1.88
2023-03-13T04:23:49.189Z,1.88
2023-03-13T04:26:18.886Z,2.30
2023-03-13T04:28:47.219Z,2.00
2023-03-13T04:31:15.557Z,1.88
2023-03-13T04:33:43.866Z,1.60
2023-03-13T04:36:12.223Z,1.70
2023-03-13T04:38:40.590Z,1.58
2023-03-13T04:41:08.916Z,2.33
2023-03-13T04:43:38.588Z,1.60
2023-03-13T04:46:06.976Z,2.65
2023-03-13T04:48:35.531Z,1.35
2023-03-13T04:51:03.898Z,1.60
2023-03-13T04:53:32.417Z,2.20
2023-03-13T04:56:00.731Z,2.30
2023-03-13T04:58:29.441Z,1.80
2023-03-13T05:00:59.214Z,1.80
2023-03-13T05:03:27.691Z,1.90
2023-03-13T05:05:56.002Z,2.20
2023-03-13T05:08:24.307Z,2.85
2023-03-13T05:10:52.629Z,2.33
2023-03-13T05:13:20.979Z,1.75
2023-03-13T05:15:49.387Z,1.48
2023-03-13T05:18:19.150Z,1.42
2023-03-13T05:20:47.542Z,1.40
2023-03-13T05:23:16.016Z,1.40
2023-03-13T05:25:44.479Z,1.50
2023-03-13T05:28:13.185Z,1.40
2023-03-13T05:30:41.539Z,1.60
2023-03-13T05:33:09.873Z,2.30
2023-03-13T05:35:39.830Z,1.92
2023-03-13T05:38:08.230Z,1.70
2023-03-13T05:40:36.593Z,1.50
2023-03-13T05:43:05.177Z,1.48
2023-03-13T05:45:33.491Z,1.20
2023-03-13T05:48:01.821Z,1.70
2023-03-13T05:50:30.167Z,1.80
2023-03-13T05:52:59.824Z,1.48
2023-03-13T05:55:28.169Z,1.33
2023-03-13T05:57:56.565Z,2.22
2023-03-13T06:00:25.372Z,1.80
2023-03-13T06:02:53.613Z,1.67
2023-03-13T06:05:25.245Z,2.15
2023-03-13T06:07:55.656Z,2.28
2023-03-13T06:10:39.116Z,1.90
2023-03-13T06:18:30.651Z,2.10
2023-03-13T06:29:30.514Z,1.60
2023-03-13T06:32:08.587Z,2.05
2023-03-13T06:38:19.220Z,1.48
2023-03-13T06:41:08.063Z,1.40
2023-03-13T06:43:46.753Z,1.42
2023-03-13T06:46:24.882Z,1.55
2023-03-13T06:48:53.683Z,1.92
2023-03-13T06:51:29.717Z,1.75
2023-03-13T06:54:15.614Z,2.30
2023-03-13T06:56:50.078Z,2.00
2023-03-13T06:59:26.816Z,1.20
2023-03-13T07:01:58.153Z,1.50
2023-03-13T07:04:32.235Z,1.50
2023-03-13T07:07:26.023Z,1.50
2023-03-13T07:10:10.396Z,2.13
2023-03-13T07:12:56.400Z,2.70
2023-03-13T07:15:29.906Z,1.90
2023-03-13T07:18:10.484Z,1.70
2023-03-13T07:20:52.247Z,1.58
2023-03-13T07:23:46.908Z,1.23
2023-03-13T07:26:24.474Z,1.08
2023-03-13T07:28:56.618Z,1.25
2023-03-13T07:31:37.067Z,1.00
2023-03-13T07:34:26.263Z,1.20
2023-03-13T07:37:12.800Z,1.00
2023-03-13T07:40:04.965Z,1.23
2023-03-13T07:42:38.252Z,1.63
2023-03-13T07:45:27.603Z,1.45
2023-03-13T07:48:20.905Z,1.13
2023-03-13T07:51:46.483Z,0.90
2023-03-13T08:01:26.514Z,0.90
2023-03-13T08:09:39.236Z,0.70
2023-03-13T08:15:53.660Z,0.80
2023-03-13T08:18:47.525Z,0.80
2023-03-13T08:21:52.825Z,0.77
2023-03-13T08:27:05.448Z,0.77
2023-03-13T08:29:43.237Z,0.80
2023-03-13T08:32:32.083Z,0.70
2023-03-13T08:35:18.896Z,0.98
2023-03-13T08:38:14.551Z,1.10
2023-03-13T08:41:08.816Z,0.90
2023-03-13T08:43:44.696Z,1.10
2023-03-13T08:48:55.804Z,0.60
2023-03-13T08:57:18.124Z,1.48
2023-03-13T08:59:48.116Z,0.95
2023-03-13T09:02:29.514Z,0.68
2023-03-13T09:05:03.527Z,0.93
2023-03-13T09:07:34.608Z,0.70
2023-03-13T09:10:40.363Z,1.08
2023-03-13T09:13:22.234Z,1.10
2023-03-13T09:16:19.664Z,1.00
2023-03-13T09:19:12.988Z,0.80
2023-03-13T09:25:09.725Z,0.95
2023-03-13T09:34:42.243Z,1.00
2023-03-13T09:37:55.412Z,1.05
2023-03-13T09:41:05.281Z,1.40
2023-03-13T15:24:19.740Z,1.30
2023-03-13T15:27:45.413Z,1.73
2023-03-13T15:31:08.276Z,1.30
2023-03-13T15:34:18.976Z,1.80
2023-03-13T15:56:02.371Z,2.08
2023-03-13T16:06:44.831Z,2.10
2023-03-13T16:32:33.425Z,1.50
2023-03-13T16:35:55.561Z,1.20
2023-03-13T16:53:24.280Z,1.23
2023-03-13T17:00:09.969Z,1.88
2023-03-13T17:03:41.173Z,1.80
2023-03-13T17:11:17.275Z,3.40
2023-03-13T17:18:09.446Z,1.60
2023-03-13T17:39:43.512Z,0.77
2023-03-13T17:45:23.542Z,0.80
2023-03-13T17:48:39.437Z,0.80
2023-03-13T17:51:39.811Z,1.00
2023-03-13T19:07:15.110Z,1.20
2023-03-13T19:09:52.649Z,1.13
2023-03-13T19:12:20.942Z,1.30
2023-03-13T19:14:56.326Z,1.90
2023-03-13T19:21:10.815Z,1.02
2023-03-13T19:23:55.601Z,1.00
2023-03-13T19:26:35.902Z,1.05
2023-03-13T19:29:21.667Z,1.63
2023-03-13T19:32:03.477Z,1.42
2023-03-13T19:34:39.064Z,2.25
2023-03-13T19:37:29.847Z,3.08
2023-03-13T19:40:28.386Z,1.42
2023-03-13T19:43:14.935Z,1.00
2023-03-13T19:46:03.419Z,1.50
2023-03-13T19:48:39.701Z,1.20
2023-03-13T19:51:22.494Z,1.30
2023-03-13T19:53:57.969Z,1.23
2023-03-13T19:56:39.249Z,1.67
2023-03-13T19:59:18.766Z,1.52
2023-03-13T20:01:56.195Z,2.15
2023-03-13T20:04:25.361Z,1.73
2023-03-13T20:07:09.055Z,1.40
2023-03-13T20:09:38.836Z,1.80
2023-03-13T20:12:13.323Z,1.70
2023-03-13T20:14:41.415Z,3.30
2023-03-13T20:17:11.924Z,2.42
2023-03-13T20:19:44.596Z,3.05
2023-03-13T20:22:26.353Z,2.58
2023-03-13T20:24:55.949Z,3.00
2023-03-13T20:27:25.487Z,2.80
2023-03-13T20:29:53.514Z,2.72
2023-03-13T20:32:21.496Z,2.22
2023-03-13T20:34:49.426Z,2.20
2023-03-13T20:37:17.514Z,2.30
2023-03-13T20:39:45.455Z,2.70
2023-03-13T20:42:13.430Z,2.05
2023-03-13T20:44:43.125Z,2.05
2023-03-13T20:47:11.149Z,1.50
2023-03-13T20:49:41.486Z,1.25
2023-03-13T20:52:09.612Z,1.50
2023-03-13T20:54:42.534Z,1.50
2023-03-13T20:57:11.094Z,1.20
2023-03-13T20:59:39.442Z,1.30
2023-03-13T21:02:09.888Z,1.20
2023-03-13T21:04:38.069Z,1.40
2023-03-13T21:07:06.103Z,1.00
2023-03-13T21:09:37.458Z,0.90
2023-03-13T21:12:06.140Z,1.05
2023-03-13T21:14:37.289Z,1.30
2023-03-13T21:17:12.425Z,1.00
2023-03-13T21:19:43.092Z,1.10
2023-03-13T21:22:11.302Z,1.05
2023-03-13T21:24:39.736Z,1.00
2023-03-13T21:27:10.786Z,1.30
2023-03-13T21:29:44.057Z,1.02
2023-03-13T21:32:22.230Z,1.25
2023-03-13T21:34:59.723Z,0.90
2023-03-13T21:37:33.117Z,1.10
2023-03-13T21:40:03.517Z,1.00
2023-03-13T21:42:36.336Z,0.80
2023-03-13T21:45:08.307Z,0.80
2023-03-13T21:47:38.048Z,1.00
2023-03-13T21:50:13.969Z,0.80
2023-03-13T21:52:44.633Z,0.60
2023-03-13T21:55:15.585Z,1.00
2023-03-13T21:57:46.524Z,1.10
2023-03-13T22:00:23.125Z,0.93
2023-03-13T22:02:52.585Z,1.10
2023-03-13T22:05:24.033Z,1.50
2023-03-13T22:07:52.101Z,0.88
2023-03-13T22:10:24.031Z,0.90
2023-03-13T22:12:59.880Z,0.88
2023-03-13T22:15:51.623Z,1.10
2023-03-13T22:21:10.045Z,1.30
2023-03-13T22:24:00.109Z,1.27
2023-03-13T22:26:43.406Z,1.30
2023-03-13T22:37:23.143Z,0.30
2023-03-13T22:40:05.237Z,0.50
2023-03-13T22:42:42.171Z,0.60
2023-03-13T22:45:16.221Z,0.70
2023-03-13T22:48:04.437Z,0.50
2023-03-13T22:50:37.491Z,0.45
2023-03-13T22:53:24.598Z,0.80
2023-03-13T22:56:12.909Z,0.88
2023-03-13T22:58:49.663Z,0.80
2023-03-13T23:01:25.432Z,0.60
2023-03-13T23:03:58.742Z,0.57
2023-03-13T23:06:39.196Z,0.30
2023-03-13T23:09:11.701Z,0.40
2023-03-13T23:11:56.123Z,0.45
2023-03-13T23:14:30.372Z,0.50
2023-03-13T23:16:59.089Z,0.50
2023-03-13T23:19:43.532Z,0.40
2023-03-13T23:22:18.365Z,0.40
2023-03-13T23:24:57.909Z,0.40
2023-03-13T23:27:31.327Z,0.40
2023-03-13T23:30:04.296Z,0.40
2023-03-13T23:32:48.037Z,0.70
2023-03-13T23:35:22.128Z,0.50
2023-03-13T23:37:55.213Z,0.25
2023-03-13T23:40:25.579Z,0.35
2023-03-13T23:42:55.123Z,1.90
2023-03-13T23:45:23.421Z,0.60
2023-03-13T23:47:58.524Z,0.43
2023-03-13T23:50:28.371Z,0.50
2023-03-13T23:53:01.100Z,0.40
2023-03-13T23:55:36.522Z,0.47
2023-03-13T23:58:10.309Z,0.35
